Time;durP1;ratioP1;P1;durP2;ratioP2;P2;SDS_P1;SDS_P2;PMS_P1;PMS_P2;Temp;Humidity;BMP_temperature;BMP_pressure;BME280_temperature;BME280_humidity;BME280_pressure;Samples;Min_cycle;Max_cycle;Signal;HPM_P1;HPM_P2
2022/03/31 00:00:37;;;;;;;27.63;10.70;;;6.30;99.90;;;;;;5072607;28;20467;-65
2022/03/31 00:03:05;;;;;;;22.47;9.70;;;6.20;99.90;;;;;;5070756;28;20412;-66
2022/03/31 00:05:31;;;;;;;26.80;10.60;;;6.30;99.90;;;;;;5074486;28;20544;-67
2022/03/31 00:08:06;;;;;;;33.27;11.23;;;6.30;99.90;;;;;;5083307;28;20940;-66
2022/03/31 00:10:37;;;;;;;31.67;12.83;;;6.40;99.90;;;;;;5075654;28;20447;-66
2022/03/31 00:13:05;;;;;;;33.10;12.73;;;6.40;99.90;;;;;;5074629;28;20810;-66
2022/03/31 00:15:32;;;;;;;23.80;10.43;;;6.40;99.90;;;;;;5067823;28;20488;-63
2022/03/31 00:17:59;;;;;;;25.70;12.33;;;6.40;99.90;;;;;;5075671;28;21129;-67
2022/03/31 00:20:26;;;;;;;28.43;11.77;;;6.40;99.90;;;;;;5079697;28;20588;-66
2022/03/31 00:22:52;;;;;;;28.17;12.37;;;6.40;99.90;;;;;;5083933;28;20868;-69
2022/03/31 00:25:17;;;;;;;26.57;12.57;;;6.40;99.90;;;;;;5077176;28;20922;-69
2022/03/31 00:27:43;;;;;;;36.03;12.00;;;6.30;99.90;;;;;;5077265;28;20184;-68
2022/03/31 00:30:11;;;;;;;33.47;13.20;;;6.30;99.90;;;;;;5085792;28;20192;-69
2022/03/31 00:32:38;;;;;;;31.30;13.40;;;6.30;99.90;;;;;;5075829;28;20193;-68
2022/03/31 00:35:05;;;;;;;27.30;12.17;;;6.30;99.90;;;;;;5074774;28;20489;-67
2022/03/31 00:37:31;;;;;;;34.90;12.63;;;6.30;99.90;;;;;;5083405;28;20465;-66
2022/03/31 00:39:57;;;;;;;27.67;13.10;;;6.30;99.90;;;;;;5087107;28;21599;-68
2022/03/31 00:42:23;;;;;;;29.40;11.83;;;6.30;99.90;;;;;;5077225;28;20184;-68
2022/03/31 00:44:50;;;;;;;31.67;13.33;;;6.30;99.90;;;;;;5071765;28;20771;-68
2022/03/31 00:47:17;;;;;;;32.50;12.83;;;6.40;99.90;;;;;;5077309;28;20859;-68
2022/03/31 00:49:44;;;;;;;36.93;14.70;;;6.40;99.90;;;;;;5061501;28;20583;-68
2022/03/31 00:52:09;;;;;;;31.97;14.60;;;6.40;99.90;;;;;;5071861;28;21117;-68
2022/03/31 00:54:37;;;;;;;29.37;12.63;;;6.40;99.90;;;;;;5064734;28;20423;-68
2022/03/31 00:57:05;;;;;;;27.50;12.47;;;6.40;99.90;;;;;;5066043;28;20531;-68
2022/03/31 00:59:31;;;;;;;32.90;12.27;;;6.40;99.90;;;;;;5075627;28;20461;-68
2022/03/31 01:01:58;;;;;;;30.53;12.30;;;6.30;99.90;;;;;;5084892;28;20438;-67
2022/03/31 01:04:26;;;;;;;33.23;13.00;;;6.30;99.90;;;;;;5085458;28;20466;-66
2022/03/31 01:06:52;;;;;;;32.73;12.30;;;6.40;99.90;;;;;;5072362;28;20415;-68
2022/03/31 01:09:18;;;;;;;30.83;12.83;;;6.30;99.90;;;;;;5073061;28;20423;-66
2022/03/31 01:11:45;;;;;;;35.80;12.83;;;6.30;99.90;;;;;;5079230;28;20450;-68
2022/03/31 01:14:11;;;;;;;28.20;13.93;;;6.20;99.90;;;;;;5070611;28;20189;-68
2022/03/31 01:16:37;;;;;;;29.00;13.97;;;6.20;99.90;;;;;;5081004;28;20442;-67
2022/03/31 01:19:08;;;;;;;25.97;12.13;;;6.20;99.90;;;;;;5071203;28;20476;-66
2022/03/31 01:21:38;;;;;;;29.10;14.20;;;6.20;99.90;;;;;;5080776;28;20222;-68
2022/03/31 01:24:06;;;;;;;39.20;15.10;;;6.10;99.90;;;;;;5071362;28;20499;-67
2022/03/31 01:26:34;;;;;;;36.83;13.87;;;6.10;99.90;;;;;;5070233;28;20431;-69
2022/03/31 01:29:00;;;;;;;29.37;12.70;;;6.20;99.90;;;;;;5080502;28;20834;-67
2022/03/31 01:31:26;;;;;;;30.53;11.10;;;6.10;99.90;;;;;;5073468;28;20446;-67
2022/03/31 01:33:53;;;;;;;28.17;13.53;;;6.20;99.90;;;;;;5062974;28;20193;-68
2022/03/31 01:36:19;;;;;;;26.23;12.90;;;6.10;99.90;;;;;;5066690;28;20426;-68
2022/03/31 01:38:46;;;;;;;29.17;13.73;;;6.10;99.90;;;;;;5074523;28;20470;-65
2022/03/31 01:41:12;;;;;;;35.00;13.57;;;6.10;99.90;;;;;;5076148;28;20935;-66
2022/03/31 01:43:37;;;;;;;30.47;12.50;;;6.10;99.90;;;;;;5072653;28;20427;-67
2022/03/31 01:46:03;;;;;;;39.73;13.73;;;6.20;99.90;;;;;;5071977;28;20237;-69
2022/03/31 01:48:29;;;;;;;32.40;14.17;;;6.20;99.90;;;;;;5071833;28;20185;-66
2022/03/31 01:50:55;;;;;;;28.33;14.23;;;6.20;99.90;;;;;;5084763;28;20265;-68
2022/03/31 01:53:21;;;;;;;36.80;13.33;;;6.30;99.90;;;;;;5077339;28;20510;-66
2022/03/31 01:55:46;;;;;;;28.70;13.27;;;6.30;99.90;;;;;;5085557;28;20185;-64
2022/03/31 01:58:12;;;;;;;31.07;14.73;;;6.30;99.90;;;;;;5073933;28;20185;-64
2022/03/31 02:00:38;;;;;;;30.40;12.87;;;6.30;99.90;;;;;;5071280;28;20220;-66
2022/03/31 02:03:04;;;;;;;25.77;13.83;;;6.20;99.90;;;;;;5068936;28;20188;-66
2022/03/31 02:05:29;;;;;;;34.43;13.30;;;6.20;99.90;;;;;;5079402;28;20808;-66
2022/03/31 02:07:56;;;;;;;37.33;15.47;;;6.20;99.90;;;;;;5069067;28;20253;-66
2022/03/31 02:10:25;;;;;;;29.87;13.07;;;6.20;99.90;;;;;;5060091;28;20215;-66
2022/03/31 02:12:51;;;;;;;38.60;14.97;;;6.20;99.90;;;;;;5067403;28;20953;-65
2022/03/31 02:15:19;;;;;;;31.83;14.40;;;6.20;99.90;;;;;;5084014;28;20442;-66
2022/03/31 02:17:45;;;;;;;32.67;12.77;;;6.20;99.90;;;;;;5083493;28;20441;-63
2022/03/31 02:20:11;;;;;;;29.93;12.97;;;6.20;99.90;;;;;;5075480;28;20474;-66
2022/03/31 02:22:37;;;;;;;38.93;12.70;;;6.20;99.90;;;;;;5071142;28;20189;-66
2022/03/31 02:25:03;;;;;;;27.90;12.00;;;6.10;99.90;;;;;;5069802;28;20192;-64
2022/03/31 02:27:29;;;;;;;32.43;15.10;;;6.10;99.90;;;;;;5077955;28;20483;-65
2022/03/31 02:29:55;;;;;;;33.47;13.10;;;6.10;99.90;;;;;;5086219;28;21102;-66
2022/03/31 02:32:20;;;;;;;29.60;13.57;;;6.20;99.90;;;;;;5069824;28;20212;-66
2022/03/31 02:34:46;;;;;;;21.23;11.10;;;6.20;99.90;;;;;;5086733;28;20188;-65
2022/03/31 02:37:11;;;;;;;23.80;11.07;;;6.20;99.90;;;;;;5082676;28;20242;-65
2022/03/31 02:39:37;;;;;;;25.17;11.50;;;6.10;99.90;;;;;;5083066;28;20245;-67
2022/03/31 02:42:03;;;;;;;27.80;13.33;;;6.10;99.90;;;;;;5069575;28;20261;-66
2022/03/31 02:44:29;;;;;;;29.23;12.33;;;6.10;99.90;;;;;;5068804;28;20530;-64
2022/03/31 02:46:54;;;;;;;27.73;12.07;;;6.10;99.90;;;;;;5077211;28;20438;-65
2022/03/31 02:49:20;;;;;;;26.07;13.03;;;6.10;99.90;;;;;;5075132;28;20193;-66
2022/03/31 02:51:46;;;;;;;22.30;12.20;;;6.10;99.90;;;;;;5069845;28;20240;-65
2022/03/31 02:56:56;;;;;;;22.23;11.00;;;6.00;99.90;;;;;;5082155;28;20241;-65
2022/03/31 02:59:22;;;;;;;26.43;11.33;;;6.10;99.90;;;;;;5083616;28;20454;-67
2022/03/31 03:01:48;;;;;;;31.17;12.87;;;6.10;99.90;;;;;;5078978;28;20224;-67
2022/03/31 03:04:14;;;;;;;28.67;12.27;;;6.10;99.90;;;;;;5074828;28;20481;-66
2022/03/31 03:06:39;;;;;;;28.20;12.37;;;6.10;99.90;;;;;;5075142;28;21457;-67
2022/03/31 03:09:06;;;;;;;22.90;12.00;;;6.10;99.90;;;;;;5082698;28;20196;-66
2022/03/31 03:11:33;;;;;;;28.47;12.67;;;6.10;99.90;;;;;;5075985;28;20212;-66
2022/03/31 03:13:58;;;;;;;35.23;12.77;;;6.10;99.90;;;;;;5072813;28;21327;-66
2022/03/31 03:16:24;;;;;;;22.07;11.50;;;6.10;99.90;;;;;;5080296;28;20465;-65
2022/03/31 03:18:52;;;;;;;35.20;14.07;;;6.00;99.90;;;;;;5070584;28;20212;-65
2022/03/31 03:21:18;;;;;;;33.43;13.20;;;6.10;99.90;;;;;;5073734;28;20915;-66
2022/03/31 03:23:43;;;;;;;29.43;12.90;;;6.00;99.90;;;;;;5066288;28;20431;-66
2022/03/31 03:26:09;;;;;;;36.90;13.30;;;6.10;99.90;;;;;;5065334;28;20459;-67
2022/03/31 03:28:36;;;;;;;27.83;13.03;;;6.10;99.90;;;;;;5078351;28;20184;-66
2022/03/31 03:31:03;;;;;;;26.00;11.73;;;6.10;99.90;;;;;;5073376;28;20274;-66
2022/03/31 03:33:29;;;;;;;23.30;11.03;;;6.10;99.90;;;;;;5075529;28;20804;-65
2022/03/31 03:35:55;;;;;;;26.67;11.20;;;6.10;99.90;;;;;;5076847;28;21048;-67
2022/03/31 03:38:21;;;;;;;24.70;12.43;;;6.10;99.90;;;;;;5084641;28;20500;-66
2022/03/31 03:40:47;;;;;;;21.13;11.20;;;6.10;99.90;;;;;;5082018;28;20980;-64
2022/03/31 03:43:12;;;;;;;32.83;12.40;;;6.10;99.90;;;;;;5073397;28;20228;-63
2022/03/31 03:45:38;;;;;;;29.37;12.93;;;6.10;99.90;;;;;;5080230;28;20902;-65
2022/03/31 03:48:06;;;;;;;34.53;13.10;;;6.10;99.90;;;;;;5074394;28;20249;-65
2022/03/31 03:50:33;;;;;;;21.90;11.47;;;6.10;99.90;;;;;;5066291;28;20201;-64
2022/03/31 03:53:03;;;;;;;24.70;11.57;;;6.10;99.90;;;;;;5066585;28;20427;-66
2022/03/31 03:55:32;;;;;;;27.47;11.73;;;6.10;99.90;;;;;;5086057;28;20418;-65
2022/03/31 03:57:59;;;;;;;29.37;10.93;;;6.10;99.90;;;;;;5084152;28;20457;-67
2022/03/31 04:00:25;;;;;;;27.80;11.50;;;6.10;99.90;;;;;;5080617;28;20968;-65
2022/03/31 04:02:51;;;;;;;30.73;11.73;;;6.00;99.90;;;;;;5070378;28;20419;-66
2022/03/31 04:05:17;;;;;;;24.57;11.07;;;6.00;99.90;;;;;;5073354;28;20426;-65
2022/03/31 04:07:44;;;;;;;23.80;11.20;;;6.00;99.90;;;;;;5076273;28;21140;-64
2022/03/31 04:10:10;;;;;;;26.43;11.93;;;6.00;99.90;;;;;;5076194;28;20994;-66
2022/03/31 04:12:37;;;;;;;24.40;10.70;;;6.00;99.90;;;;;;5073000;28;20435;-65
2022/03/31 04:15:04;;;;;;;20.10;9.40;;;6.00;99.90;;;;;;5078498;28;20437;-66
2022/03/31 04:17:30;;;;;;;26.20;12.17;;;6.00;99.90;;;;;;5074587;28;20913;-65
2022/03/31 04:19:56;;;;;;;26.20;11.77;;;6.00;99.90;;;;;;5075055;28;20477;-66
2022/03/31 04:22:22;;;;;;;27.57;11.07;;;6.00;99.90;;;;;;5074787;28;21038;-65
2022/03/31 04:24:47;;;;;;;19.20;9.80;;;5.90;99.90;;;;;;5072327;28;20189;-67
2022/03/31 04:27:13;;;;;;;28.80;12.33;;;6.00;99.90;;;;;;5072902;28;20192;-65
2022/03/31 04:29:39;;;;;;;25.07;11.33;;;5.90;99.90;;;;;;5073226;28;20697;-66
2022/03/31 04:32:05;;;;;;;27.87;11.87;;;5.90;99.90;;;;;;5060739;28;20700;-65
2022/03/31 04:34:31;;;;;;;22.40;11.70;;;5.90;99.90;;;;;;5066217;28;20211;-65
2022/03/31 04:36:56;;;;;;;26.73;10.47;;;5.90;99.90;;;;;;5082469;28;20430;-65
2022/03/31 04:39:22;;;;;;;22.20;11.60;;;5.90;99.90;;;;;;5075169;28;20302;-65
2022/03/31 04:41:48;;;;;;;28.30;12.10;;;5.90;99.90;;;;;;5081297;28;20559;-65
2022/03/31 04:44:14;;;;;;;36.53;11.60;;;5.90;99.90;;;;;;5078413;28;20184;-66
2022/03/31 04:46:40;;;;;;;24.00;11.43;;;5.90;99.90;;;;;;5078645;28;20433;-65
2022/03/31 04:49:07;;;;;;;27.03;12.40;;;5.90;99.90;;;;;;5077045;28;20196;-65
2022/03/31 04:51:33;;;;;;;28.50;13.47;;;5.90;99.90;;;;;;5080269;28;20235;-66
2022/03/31 04:53:59;;;;;;;23.97;11.90;;;5.80;99.90;;;;;;5075552;28;20579;-66
2022/03/31 04:56:24;;;;;;;23.20;11.50;;;5.80;99.90;;;;;;5075068;28;20176;-66
2022/03/31 04:58:50;;;;;;;22.50;10.23;;;5.90;99.90;;;;;;5075482;28;20300;-65
2022/03/31 05:01:17;;;;;;;27.30;12.87;;;5.80;99.90;;;;;;5071237;28;20205;-67
2022/03/31 05:03:43;;;;;;;27.00;10.53;;;5.80;99.90;;;;;;5073586;28;20205;-66
2022/03/31 05:06:09;;;;;;;28.67;11.57;;;5.80;99.90;;;;;;5073667;28;20459;-68
2022/03/31 05:08:35;;;;;;;27.70;10.70;;;5.70;99.90;;;;;;5072435;28;20322;-66
2022/03/31 05:11:00;;;;;;;32.60;13.23;;;5.80;99.90;;;;;;5067957;28;20792;-66
2022/03/31 05:13:26;;;;;;;32.83;14.00;;;5.80;99.90;;;;;;5070599;28;20528;-66
2022/03/31 05:15:52;;;;;;;29.07;12.60;;;5.80;99.90;;;;;;5071607;28;20187;-66
2022/03/31 05:18:18;;;;;;;32.50;13.40;;;5.70;99.90;;;;;;5074344;28;20177;-66
2022/03/31 05:20:44;;;;;;;27.63;12.53;;;5.70;99.90;;;;;;5074392;28;20454;-66
2022/03/31 05:23:11;;;;;;;26.93;12.43;;;5.70;99.90;;;;;;5071773;28;20557;-65
2022/03/31 05:25:37;;;;;;;24.57;12.10;;;5.70;99.90;;;;;;5073277;28;20418;-66
2022/03/31 05:28:03;;;;;;;29.17;12.90;;;5.70;99.90;;;;;;5079779;28;20422;-66
2022/03/31 05:30:28;;;;;;;33.50;13.90;;;5.70;99.90;;;;;;5077355;28;20235;-67
2022/03/31 05:32:54;;;;;;;23.17;10.87;;;5.70;99.90;;;;;;5066147;28;20191;-66
2022/03/31 05:35:21;;;;;;;27.70;12.20;;;5.60;99.90;;;;;;5078311;28;20198;-66
2022/03/31 05:37:47;;;;;;;27.37;11.83;;;5.60;99.90;;;;;;5084674;28;20203;-67
2022/03/31 05:40:14;;;;;;;20.57;11.97;;;5.60;99.90;;;;;;5080486;28;20546;-66
2022/03/31 05:42:40;;;;;;;29.20;13.20;;;5.60;99.90;;;;;;5071737;28;20450;-64
2022/03/31 05:45:09;;;;;;;21.70;10.70;;;5.60;99.90;;;;;;5067339;28;20922;-63
2022/03/31 05:47:35;;;;;;;29.10;11.40;;;5.60;99.90;;;;;;5073729;28;21072;-65
2022/03/31 05:50:01;;;;;;;22.20;11.37;;;5.50;99.90;;;;;;5060101;28;20473;-65
2022/03/31 05:52:27;;;;;;;28.60;11.93;;;5.40;99.90;;;;;;5084636;28;20454;-65
2022/03/31 05:54:52;;;;;;;30.27;14.00;;;5.40;99.90;;;;;;5068931;28;20649;-66
2022/03/31 05:57:18;;;;;;;24.33;12.83;;;5.40;99.90;;;;;;5080781;28;20196;-65
2022/03/31 05:59:44;;;;;;;33.63;13.40;;;5.40;99.90;;;;;;5079285;28;20254;-66
2022/03/31 06:02:11;;;;;;;35.07;14.57;;;5.30;99.90;;;;;;5072110;28;20208;-64
2022/03/31 06:04:39;;;;;;;25.60;11.33;;;5.30;99.90;;;;;;5074164;28;20631;-67
2022/03/31 06:07:07;;;;;;;25.73;12.57;;;5.30;99.90;;;;;;5072304;28;20438;-66
2022/03/31 06:09:33;;;;;;;27.10;13.23;;;5.40;99.90;;;;;;5073651;28;20426;-66
2022/03/31 06:11:58;;;;;;;31.20;12.83;;;5.40;99.90;;;;;;5069274;28;20509;-70
2022/03/31 06:14:24;;;;;;;29.87;14.57;;;5.40;99.90;;;;;;5075926;28;20415;-64
2022/03/31 06:16:51;;;;;;;27.33;12.97;;;5.50;99.90;;;;;;5058279;28;20173;-65
2022/03/31 06:19:17;;;;;;;33.53;14.03;;;5.50;99.90;;;;;;5073260;28;20466;-66
2022/03/31 06:21:44;;;;;;;28.87;13.50;;;5.50;99.90;;;;;;5059062;28;20462;-66
2022/03/31 06:24:10;;;;;;;27.70;12.80;;;5.40;99.90;;;;;;5068510;28;20465;-65
2022/03/31 06:26:35;;;;;;;25.70;12.90;;;5.50;99.90;;;;;;5076399;28;20833;-67
2022/03/31 06:29:01;;;;;;;22.70;11.33;;;5.60;99.90;;;;;;5080898;28;20450;-66
2022/03/31 06:31:27;;;;;;;25.63;12.43;;;5.60;99.90;;;;;;5063226;28;20231;-66
2022/03/31 06:33:53;;;;;;;27.40;12.00;;;5.60;99.90;;;;;;5078657;28;20187;-67
2022/03/31 06:36:19;;;;;;;34.77;13.00;;;5.60;99.90;;;;;;5077247;28;20199;-67
2022/03/31 06:38:46;;;;;;;25.53;13.80;;;5.60;99.90;;;;;;5075406;28;20590;-67
2022/03/31 06:41:17;;;;;;;24.97;12.87;;;5.70;99.90;;;;;;5077335;28;20430;-66
2022/03/31 06:43:45;;;;;;;28.20;13.00;;;5.70;99.90;;;;;;5075819;28;20426;-67
2022/03/31 06:46:12;;;;;;;29.80;12.63;;;5.70;99.90;;;;;;5075425;28;22130;-65
2022/03/31 06:48:41;;;;;;;32.43;13.67;;;5.70;99.90;;;;;;5078271;28;20445;-67
2022/03/31 06:51:08;;;;;;;27.33;11.80;;;5.70;99.90;;;;;;5077910;28;20434;-67
2022/03/31 06:53:36;;;;;;;34.83;13.60;;;5.80;99.90;;;;;;5076031;28;20407;-67
2022/03/31 06:56:03;;;;;;;24.60;11.80;;;5.70;99.90;;;;;;5079377;28;20984;-68
2022/03/31 06:58:30;;;;;;;20.80;10.67;;;5.80;99.90;;;;;;5072088;28;20848;-68
2022/03/31 07:00:56;;;;;;;25.07;11.87;;;5.70;99.90;;;;;;5078035;28;20468;-68
2022/03/31 07:03:22;;;;;;;24.87;12.27;;;5.80;99.90;;;;;;5080763;28;20509;-67
2022/03/31 07:05:48;;;;;;;21.80;10.93;;;5.80;99.90;;;;;;5075657;28;20511;-67
2022/03/31 07:08:14;;;;;;;23.20;12.23;;;5.90;99.90;;;;;;5077296;28;20507;-66
2022/03/31 07:10:39;;;;;;;24.60;12.07;;;6.00;99.90;;;;;;5078647;28;20242;-67
2022/03/31 07:13:05;;;;;;;22.80;11.43;;;6.00;99.90;;;;;;5076139;28;20200;-68
2022/03/31 07:15:33;;;;;;;18.60;11.00;;;6.00;99.90;;;;;;5058652;28;20227;-68
2022/03/31 07:18:03;;;;;;;24.27;11.43;;;5.90;99.90;;;;;;5066985;28;20184;-67
2022/03/31 07:20:29;;;;;;;23.60;10.77;;;5.90;99.90;;;;;;5070793;28;20474;-68
2022/03/31 07:22:55;;;;;;;20.23;11.57;;;5.90;99.90;;;;;;5072422;28;20521;-67
2022/03/31 07:25:21;;;;;;;21.10;10.80;;;5.90;99.90;;;;;;5065085;28;20458;-66
2022/03/31 07:27:48;;;;;;;20.50;11.30;;;6.00;99.90;;;;;;5072869;28;20191;-67
2022/03/31 07:30:16;;;;;;;22.30;10.70;;;6.00;99.90;;;;;;5073657;28;21070;-67
2022/03/31 07:32:55;;;;;;;27.63;11.60;;;6.00;99.90;;;;;;5073114;28;20506;-67
2022/03/31 07:35:23;;;;;;;25.37;11.73;;;6.00;99.90;;;;;;5079416;28;20417;-68
2022/03/31 07:37:54;;;;;;;21.80;11.80;;;5.90;99.90;;;;;;5072132;28;20509;-67
2022/03/31 07:40:21;;;;;;;27.47;12.70;;;5.80;99.90;;;;;;5078198;28;20860;-66
2022/03/31 07:42:47;;;;;;;26.23;11.60;;;5.70;99.90;;;;;;5074201;28;20471;-68
2022/03/31 07:45:12;;;;;;;28.70;11.87;;;5.70;99.90;;;;;;5078201;28;20948;-67
2022/03/31 07:47:39;;;;;;;24.07;12.00;;;5.70;99.90;;;;;;5078867;28;20276;-66
2022/03/31 07:50:07;;;;;;;35.80;12.60;;;5.60;99.90;;;;;;5074582;28;20188;-66
2022/03/31 07:52:32;;;;;;;21.13;10.37;;;5.70;99.90;;;;;;5056204;28;20460;-66
2022/03/31 07:54:59;;;;;;;25.93;12.03;;;5.70;99.90;;;;;;5060846;28;20554;-66
2022/03/31 07:57:25;;;;;;;22.07;11.60;;;5.80;99.90;;;;;;5074369;28;20528;-64
2022/03/31 07:59:50;;;;;;;24.97;12.90;;;5.90;99.90;;;;;;5077252;28;20219;-67
2022/03/31 08:02:16;;;;;;;26.10;11.13;;;6.00;99.90;;;;;;5084831;28;20622;-67
2022/03/31 08:04:42;;;;;;;26.77;12.90;;;6.10;99.90;;;;;;5084657;28;20196;-68
2022/03/31 08:07:08;;;;;;;26.20;11.90;;;6.30;99.90;;;;;;5060348;28;20430;-64
2022/03/31 08:09:33;;;;;;;23.67;11.43;;;6.50;99.90;;;;;;5072107;28;20195;-66
2022/03/31 08:11:59;;;;;;;29.27;12.97;;;6.60;99.90;;;;;;5083990;28;20318;-67
2022/03/31 08:14:25;;;;;;;21.03;9.50;;;6.70;99.90;;;;;;5080129;28;20348;-66
2022/03/31 08:16:52;;;;;;;24.50;11.70;;;6.70;99.90;;;;;;5078560;28;20192;-67
2022/03/31 08:19:18;;;;;;;20.80;10.90;;;6.70;99.90;;;;;;5074369;28;20205;-69
2022/03/31 08:21:46;;;;;;;31.73;12.17;;;6.60;99.90;;;;;;5071085;28;20466;-67
2022/03/31 08:24:13;;;;;;;21.80;10.93;;;6.50;99.90;;;;;;5064762;28;20427;-68
2022/03/31 08:26:42;;;;;;;23.17;12.23;;;6.50;99.90;;;;;;5069558;28;20446;-67
2022/03/31 08:29:09;;;;;;;26.10;10.50;;;6.60;99.90;;;;;;5073152;28;20434;-68
2022/03/31 08:31:35;;;;;;;34.17;13.10;;;6.60;99.90;;;;;;5069108;28;20875;-68
2022/03/31 08:34:02;;;;;;;21.90;11.53;;;6.50;99.90;;;;;;5066207;28;20988;-67
2022/03/31 08:36:28;;;;;;;25.73;12.40;;;6.30;99.90;;;;;;5072838;28;20193;-68
2022/03/31 08:38:53;;;;;;;33.03;11.50;;;6.40;99.90;;;;;;5076731;28;20427;-68
2022/03/31 08:41:23;;;;;;;29.70;12.77;;;6.50;99.90;;;;;;5070300;28;20439;-68
2022/03/31 08:43:49;;;;;;;26.07;14.30;;;6.60;99.90;;;;;;5074426;28;20200;-68
2022/03/31 08:46:16;;;;;;;25.57;11.70;;;6.70;99.90;;;;;;5074112;28;20656;-68
2022/03/31 08:48:42;;;;;;;26.87;12.87;;;6.70;99.90;;;;;;5073069;28;20326;-67
2022/03/31 08:51:08;;;;;;;28.53;12.90;;;6.70;99.90;;;;;;5062625;28;20486;-68
2022/03/31 08:53:34;;;;;;;25.20;12.77;;;6.70;99.90;;;;;;5071772;28;20445;-68
2022/03/31 08:56:00;;;;;;;26.37;13.40;;;6.90;99.90;;;;;;5081550;28;20450;-68
2022/03/31 08:58:26;;;;;;;29.83;12.07;;;7.00;99.90;;;;;;5063423;28;20435;-68
2022/03/31 09:00:52;;;;;;;29.87;11.10;;;7.20;99.90;;;;;;5066677;28;20502;-68
2022/03/31 09:03:18;;;;;;;21.27;9.93;;;7.30;99.90;;;;;;5067056;28;20254;-68
2022/03/31 09:05:45;;;;;;;25.47;12.13;;;7.60;99.90;;;;;;5068240;28;20463;-66
2022/03/31 09:08:14;;;;;;;20.83;9.53;;;7.80;99.90;;;;;;5063198;28;20192;-68
2022/03/31 09:10:47;;;;;;;22.30;11.13;;;8.10;99.90;;;;;;5068623;28;20450;-69
2022/03/31 09:13:28;;;;;;;28.50;10.47;;;8.20;99.90;;;;;;5069544;28;20426;-67
2022/03/31 09:16:01;;;;;;;19.70;9.80;;;8.10;99.90;;;;;;5072729;28;20438;-66
2022/03/31 09:18:29;;;;;;;22.40;9.87;;;8.10;99.90;;;;;;5074060;28;20456;-69
2022/03/31 09:20:59;;;;;;;20.50;9.90;;;7.90;99.90;;;;;;5074668;28;20993;-68
2022/03/31 09:23:27;;;;;;;22.03;10.20;;;8.00;99.90;;;;;;5069770;28;20522;-68
2022/03/31 09:26:06;;;;;;;23.43;11.13;;;8.10;99.90;;;;;;5079285;28;20431;-68
2022/03/31 09:28:32;;;;;;;23.63;11.80;;;8.10;99.90;;;;;;5074734;28;20438;-68
2022/03/31 09:30:58;;;;;;;24.67;11.97;;;8.10;99.90;;;;;;5068138;28;20462;-69
2022/03/31 09:33:48;;;;;;;23.13;10.73;;;7.80;99.90;;;;;;5061494;28;20461;-68
2022/03/31 09:36:18;;;;;;;34.40;12.17;;;7.70;99.90;;;;;;5071109;28;21095;-68
2022/03/31 09:38:53;;;;;;;24.43;10.90;;;7.80;99.90;;;;;;5074770;28;20736;-68
2022/03/31 09:41:20;;;;;;;25.87;12.63;;;7.90;99.90;;;;;;5073945;28;21031;-69
2022/03/31 09:43:48;;;;;;;21.10;10.73;;;7.80;99.90;;;;;;5067942;28;20450;-70
2022/03/31 09:46:25;;;;;;;24.03;11.67;;;7.70;99.90;;;;;;5074783;28;20498;-68
2022/03/31 09:48:52;;;;;;;22.30;10.97;;;7.80;99.90;;;;;;5076174;28;20513;-69
2022/03/31 09:51:20;;;;;;;24.03;11.50;;;7.80;99.90;;;;;;5069787;28;21082;-66
2022/03/31 09:53:50;;;;;;;19.67;10.27;;;7.80;99.90;;;;;;5077824;28;21077;-66
2022/03/31 09:56:21;;;;;;;32.03;12.43;;;7.90;99.90;;;;;;5068622;28;20965;-67
2022/03/31 09:58:47;;;;;;;27.23;11.70;;;8.00;99.90;;;;;;5072517;28;20499;-68
2022/03/31 10:01:18;;;;;;;27.30;12.70;;;8.10;99.90;;;;;;5071823;28;21151;-66
2022/03/31 10:03:44;;;;;;;30.50;11.70;;;8.30;99.90;;;;;;5082916;28;20801;-68
2022/03/31 10:06:11;;;;;;;24.60;11.00;;;8.30;99.90;;;;;;5088766;28;20422;-67
2022/03/31 10:08:39;;;;;;;24.63;11.13;;;8.20;99.90;;;;;;5081554;28;20426;-68
2022/03/31 10:11:07;;;;;;;25.10;10.60;;;8.40;99.90;;;;;;5084299;28;20810;-67
2022/03/31 10:13:47;;;;;;;39.03;11.93;;;8.60;99.90;;;;;;5076393;28;20430;-68
2022/03/31 10:16:17;;;;;;;28.70;11.20;;;8.70;99.90;;;;;;5080245;28;20765;-68
2022/03/31 10:18:46;;;;;;;20.63;10.00;;;8.90;99.90;;;;;;5069164;28;20430;-68
2022/03/31 10:21:12;;;;;;;22.70;10.83;;;9.00;99.90;;;;;;5088088;28;20987;-66
2022/03/31 10:26:33;;;;;;;21.10;10.53;;;9.20;99.90;;;;;;5068758;28;20426;-68
2022/03/31 10:29:01;;;;;;;22.47;11.47;;;9.30;99.90;;;;;;5075668;28;20430;-67
2022/03/31 10:31:37;;;;;;;18.00;9.17;;;9.30;99.90;;;;;;5070204;28;20216;-68
2022/03/31 10:34:05;;;;;;;18.07;8.27;;;9.30;99.90;;;;;;5074027;28;20459;-68
2022/03/31 10:36:45;;;;;;;23.10;8.43;;;9.40;99.90;;;;;;5062490;28;20478;-68
2022/03/31 10:39:24;;;;;;;13.30;7.10;;;9.30;99.90;;;;;;5074632;28;20497;-67
2022/03/31 10:42:05;;;;;;;15.10;7.40;;;9.30;99.90;;;;;;5072722;28;20435;-68
2022/03/31 10:44:31;;;;;;;21.33;8.70;;;9.30;99.90;;;;;;5082424;28;20429;-69
2022/03/31 10:47:00;;;;;;;15.30;7.53;;;9.20;99.90;;;;;;5074404;28;20423;-68
2022/03/31 10:49:26;;;;;;;16.77;8.30;;;9.20;99.90;;;;;;5074758;28;20872;-66
2022/03/31 10:51:53;;;;;;;15.10;7.03;;;9.20;99.90;;;;;;5075678;28;20938;-67
2022/03/31 10:54:31;;;;;;;21.83;9.23;;;9.40;99.90;;;;;;5077057;28;20988;-68
2022/03/31 10:57:09;;;;;;;16.77;7.50;;;9.30;99.90;;;;;;5071277;28;20431;-67
2022/03/31 10:59:36;;;;;;;16.23;7.00;;;9.00;99.90;;;;;;5074184;28;20485;-65
2022/03/31 11:02:08;;;;;;;17.93;8.37;;;9.10;99.90;;;;;;5071097;28;20434;-68
2022/03/31 11:04:50;;;;;;;18.20;7.33;;;9.10;99.90;;;;;;5081563;28;21038;-68
2022/03/31 11:07:18;;;;;;;20.30;8.03;;;9.10;99.90;;;;;;5070023;28;20427;-67
2022/03/31 11:09:45;;;;;;;18.17;8.13;;;9.30;99.90;;;;;;5064170;28;20499;-68
2022/03/31 11:12:28;;;;;;;20.10;7.73;;;9.50;99.90;;;;;;5067462;28;20470;-67
2022/03/31 11:15:07;;;;;;;20.40;7.63;;;9.80;99.90;;;;;;5063300;28;20456;-69
2022/03/31 11:17:34;;;;;;;13.73;6.50;;;10.00;99.90;;;;;;5076730;28;20423;-65
2022/03/31 11:20:03;;;;;;;20.90;9.37;;;9.90;99.90;;;;;;5063841;28;20884;-68
2022/03/31 11:22:30;;;;;;;14.50;7.20;;;9.80;99.90;;;;;;5068168;28;20424;-67
2022/03/31 11:25:08;;;;;;;16.90;8.27;;;9.80;99.90;;;;;;5077713;28;20428;-67
2022/03/31 11:27:38;;;;;;;14.13;7.47;;;10.00;99.90;;;;;;5075797;28;20500;-66
2022/03/31 11:30:22;;;;;;;13.87;7.57;;;10.20;99.90;;;;;;5073105;28;20904;-68
2022/03/31 11:32:52;;;;;;;15.70;8.47;;;10.20;99.90;;;;;;5071176;28;20987;-69
2022/03/31 11:35:20;;;;;;;16.03;7.90;;;10.10;99.90;;;;;;5077415;28;20428;-68
2022/03/31 11:38:02;;;;;;;20.63;9.37;;;9.90;99.90;;;;;;5074272;28;20445;-68
2022/03/31 11:40:41;;;;;;;16.90;7.07;;;9.90;99.90;;;;;;5073079;28;21428;-68
2022/03/31 11:43:09;;;;;;;26.70;8.70;;;9.80;99.90;;;;;;5085067;28;20418;-68
2022/03/31 11:45:38;;;;;;;22.33;9.50;;;9.90;99.90;;;;;;5077450;28;20416;-67
2022/03/31 11:48:11;;;;;;;19.27;8.90;;;9.70;99.90;;;;;;5065538;28;20418;-69
2022/03/31 11:50:39;;;;;;;18.33;9.17;;;9.50;99.90;;;;;;5085208;28;20454;-68
2022/03/31 11:53:24;;;;;;;20.30;8.30;;;9.40;99.90;;;;;;5084377;28;20998;-68
2022/03/31 11:56:02;;;;;;;20.20;8.17;;;9.40;99.90;;;;;;5074884;28;20424;-69
2022/03/31 11:58:30;;;;;;;22.43;8.67;;;9.50;99.90;;;;;;5061882;28;20489;-68
2022/03/31 12:00:56;;;;;;;17.47;8.60;;;9.70;99.90;;;;;;5066290;28;20471;-68
2022/03/31 12:03:22;;;;;;;18.23;8.57;;;9.60;99.90;;;;;;5070317;28;20420;-67
2022/03/31 12:05:59;;;;;;;18.63;8.83;;;9.60;99.90;;;;;;5078093;28;20462;-69
2022/03/31 12:08:26;;;;;;;16.37;8.53;;;9.70;99.90;;;;;;5074682;28;20411;-68
2022/03/31 12:10:53;;;;;;;18.87;9.60;;;9.70;99.90;;;;;;5068108;28;20536;-67
2022/03/31 12:13:21;;;;;;;18.87;7.07;;;9.60;99.90;;;;;;5072351;28;20423;-68
2022/03/31 12:15:46;;;;;;;18.90;9.93;;;9.60;99.90;;;;;;5077390;28;20411;-69
2022/03/31 12:18:17;;;;;;;20.50;8.47;;;9.70;99.90;;;;;;5061642;28;20427;-68
2022/03/31 12:20:44;;;;;;;21.63;9.50;;;9.70;99.90;;;;;;5071615;28;20247;-67
2022/03/31 12:23:21;;;;;;;22.33;9.67;;;9.70;99.90;;;;;;5074285;28;20415;-68
2022/03/31 12:25:47;;;;;;;19.40;8.83;;;9.70;99.90;;;;;;5072909;28;20423;-68
2022/03/31 12:28:13;;;;;;;19.07;10.03;;;9.70;99.90;;;;;;5073640;28;21188;-67
2022/03/31 12:30:40;;;;;;;17.17;8.80;;;9.70;99.90;;;;;;5075114;28;21003;-68
2022/03/31 12:33:21;;;;;;;26.33;10.10;;;9.60;99.90;;;;;;5059119;28;20518;-69
2022/03/31 12:36:10;;;;;;;24.00;9.73;;;9.60;99.90;;;;;;5072588;28;20423;-68
2022/03/31 12:38:48;;;;;;;21.90;10.00;;;9.60;99.90;;;;;;5072212;28;20439;-67
2022/03/31 12:41:33;;;;;;;23.17;10.30;;;9.40;99.90;;;;;;5069731;28;20985;-67
2022/03/31 12:44:12;;;;;;;19.03;9.10;;;9.30;99.90;;;;;;5055306;28;20427;-66
2022/03/31 12:46:58;;;;;;;22.13;9.33;;;9.20;99.90;;;;;;5052157;28;20942;-67